sensor_id;sensor_type;location;lat;lon;timestamp;pressure;altitude;pressure_sealevel;temperature;humidity
62544;BME280;48597;49.030;1.822;2023-02-24T00:01:53;100652.25;;;19.70;40.54
62544;BME280;48597;49.030;1.822;2023-02-24T00:04:24;100637.16;;;19.69;40.53
62544;BME280;48597;49.030;1.822;2023-02-24T00:06:49;100626.50;;;19.70;40.49
62544;BME280;48597;49.030;1.822;2023-02-24T00:09:16;100631.88;;;19.68;40.51
62544;BME280;48597;49.030;1.822;2023-02-24T00:11:43;100638.41;;;19.68;40.44
62544;BME280;48597;49.030;1.822;2023-02-24T00:14:10;100636.78;;;19.67;40.57
62544;BME280;48597;49.030;1.822;2023-02-24T00:16:36;100631.06;;;19.67;40.56
62544;BME280;48597;49.030;1.822;2023-02-24T00:19:02;100636.00;;;19.67;40.61
62544;BME280;48597;49.030;1.822;2023-02-24T00:21:28;100639.31;;;19.65;40.55
62544;BME280;48597;49.030;1.822;2023-02-24T00:23:53;100628.66;;;19.66;40.54
62544;BME280;48597;49.030;1.822;2023-02-24T00:26:19;100631.53;;;19.66;40.45
62544;BME280;48597;49.030;1.822;2023-02-24T00:28:44;100626.25;;;19.64;40.48
62544;BME280;48597;49.030;1.822;2023-02-24T00:31:13;100626.25;;;19.64;40.49
62544;BME280;48597;49.030;1.822;2023-02-24T00:33:40;100625.47;;;19.63;40.45
62544;BME280;48597;49.030;1.822;2023-02-24T00:36:12;100625.91;;;19.62;40.51
62544;BME280;48597;49.030;1.822;2023-02-24T00:38:38;100628.75;;;19.62;40.46
62544;BME280;48597;49.030;1.822;2023-02-24T00:41:08;100625.09;;;19.61;40.51
62544;BME280;48597;49.030;1.822;2023-02-24T00:43:33;100619.88;;;19.60;40.50
62544;BME280;48597;49.030;1.822;2023-02-24T00:46:01;100625.59;;;19.60;40.51
62544;BME280;48597;49.030;1.822;2023-02-24T00:48:27;100613.34;;;19.59;40.53
62544;BME280;48597;49.030;1.822;2023-02-24T00:50:53;100611.75;;;19.58;40.42
62544;BME280;48597;49.030;1.822;2023-02-24T00:53:18;100610.13;;;19.57;40.43
62544;BME280;48597;49.030;1.822;2023-02-24T00:55:43;100615.06;;;19.57;40.47
62544;BME280;48597;49.030;1.822;2023-02-24T00:58:08;100619.97;;;19.56;40.46
62544;BME280;48597;49.030;1.822;2023-02-24T01:00:34;100613.44;;;19.56;40.43
62544;BME280;48597;49.030;1.822;2023-02-24T01:03:01;100607.72;;;19.56;40.37
62544;BME280;48597;49.030;1.822;2023-02-24T01:05:26;100616.75;;;19.54;40.45
62544;BME280;48597;49.030;1.822;2023-02-24T01:07:52;100611.03;;;19.54;40.37
62544;BME280;48597;49.030;1.822;2023-02-24T01:10:17;100610.25;;;19.54;40.37
62544;BME280;48597;49.030;1.822;2023-02-24T01:12:44;100604.53;;;19.54;40.44
62544;BME280;48597;49.030;1.822;2023-02-24T01:15:18;100604.53;;;19.54;40.36
62544;BME280;48597;49.030;1.822;2023-02-24T01:17:44;100599.72;;;19.51;40.37
62544;BME280;48597;49.030;1.822;2023-02-24T01:20:10;100601.75;;;19.50;40.26
62544;BME280;48597;49.030;1.822;2023-02-24T01:22:47;100598.91;;;19.50;40.23
62544;BME280;48597;49.030;1.822;2023-02-24T01:25:12;100603.03;;;19.49;40.29
62544;BME280;48597;49.030;1.822;2023-02-24T01:27:38;100598.09;;;19.50;40.32
62544;BME280;48597;49.030;1.822;2023-02-24T01:30:07;100590.78;;;19.49;40.33
62544;BME280;48597;49.030;1.822;2023-02-24T01:32:33;100587.91;;;19.49;40.35
62544;BME280;48597;49.030;1.822;2023-02-24T01:34:58;100594.09;;;19.47;40.28
62544;BME280;48597;49.030;1.822;2023-02-24T01:37:23;100588.38;;;19.47;40.32
62544;BME280;48597;49.030;1.822;2023-02-24T01:39:49;100598.19;;;19.46;40.33
62544;BME280;48597;49.030;1.822;2023-02-24T01:42:16;100585.16;;;19.45;40.38
62544;BME280;48597;49.030;1.822;2023-02-24T01:47:11;100580.69;;;19.44;40.34
62544;BME280;48597;49.030;1.822;2023-02-24T01:49:39;100577.84;;;19.44;40.34
62544;BME280;48597;49.030;1.822;2023-02-24T01:52:13;100580.69;;;19.44;40.36
62544;BME280;48597;49.030;1.822;2023-02-24T01:54:48;100569.28;;;19.44;40.38
62544;BME280;48597;49.030;1.822;2023-02-24T01:57:17;100569.28;;;19.44;40.43
62544;BME280;48597;49.030;1.822;2023-02-24T01:59:47;100572.13;;;19.44;40.38
62544;BME280;48597;49.030;1.822;2023-02-24T02:02:14;100564.34;;;19.45;40.45
62544;BME280;48597;49.030;1.822;2023-02-24T02:04:40;100567.22;;;19.45;40.59
62544;BME280;48597;49.030;1.822;2023-02-24T02:07:08;100559.44;;;19.45;40.44
62544;BME280;48597;49.030;1.822;2023-02-24T02:09:35;100557.38;;;19.46;40.47
62544;BME280;48597;49.030;1.822;2023-02-24T02:12:01;100563.09;;;19.46;40.58
62544;BME280;48597;49.030;1.822;2023-02-24T02:14:26;100556.94;;;19.47;40.57
62544;BME280;48597;49.030;1.822;2023-02-24T02:22:18;100540.94;;;19.50;40.52
62544;BME280;48597;49.030;1.822;2023-02-24T02:24:59;100544.13;;;19.52;40.50
62544;BME280;48597;49.030;1.822;2023-02-24T02:30:22;100543.59;;;19.57;40.53
62544;BME280;48597;49.030;1.822;2023-02-24T02:41:26;100523.91;;;19.59;40.55
62544;BME280;48597;49.030;1.822;2023-02-24T02:43:58;100525.97;;;19.58;40.43
62544;BME280;48597;49.030;1.822;2023-02-24T02:46:37;100530.44;;;19.59;40.58
62544;BME280;48597;49.030;1.822;2023-02-24T02:51:37;100521.38;;;19.61;40.74
62544;BME280;48597;49.030;1.822;2023-02-24T02:56:36;100517.59;;;19.64;40.71
62544;BME280;48597;49.030;1.822;2023-02-24T02:59:05;100520.81;;;19.66;40.69
62544;BME280;48597;49.030;1.822;2023-02-24T03:01:34;100511.44;;;19.66;40.67
62544;BME280;48597;49.030;1.822;2023-02-24T03:04:05;100510.97;;;19.67;40.70
62544;BME280;48597;49.030;1.822;2023-02-24T03:06:33;100503.19;;;19.68;40.69
62544;BME280;48597;49.030;1.822;2023-02-24T03:09:02;100504.34;;;19.70;40.67
62544;BME280;48597;49.030;1.822;2023-02-24T03:11:37;100515.78;;;19.70;40.61
62544;BME280;48597;49.030;1.822;2023-02-24T03:14:02;100514.06;;;19.73;40.62
62544;BME280;48597;49.030;1.822;2023-02-24T03:16:30;100507.56;;;19.72;40.57
62544;BME280;48597;49.030;1.822;2023-02-24T03:18:58;100514.88;;;19.73;40.64
62544;BME280;48597;49.030;1.822;2023-02-24T03:21:36;100518.06;;;19.75;40.54
62544;BME280;48597;49.030;1.822;2023-02-24T03:24:02;100515.19;;;19.75;40.49
62544;BME280;48597;49.030;1.822;2023-02-24T03:31:37;100508.09;;;19.80;40.44
62544;BME280;48597;49.030;1.822;2023-02-24T03:34:11;100511.78;;;19.80;40.45
62544;BME280;48597;49.030;1.822;2023-02-24T03:36:38;100509.72;;;19.81;40.38
62544;BME280;48597;49.030;1.822;2023-02-24T03:39:04;100519.09;;;19.81;40.45
62544;BME280;48597;49.030;1.822;2023-02-24T03:41:36;100508.00;;;19.83;40.27
62544;BME280;48597;49.030;1.822;2023-02-24T03:44:05;100502.28;;;19.83;40.38
62544;BME280;48597;49.030;1.822;2023-02-24T03:46:32;100497.38;;;19.84;40.42
62544;BME280;48597;49.030;1.822;2023-02-24T03:48:59;100494.03;;;19.85;40.20
62544;BME280;48597;49.030;1.822;2023-02-24T03:51:27;100490.69;;;19.87;40.24
62544;BME280;48597;49.030;1.822;2023-02-24T04:01:56;100492.19;;;19.91;40.21
62544;BME280;48597;49.030;1.822;2023-02-24T04:04:31;100495.84;;;19.92;40.19
62544;BME280;48597;49.030;1.822;2023-02-24T04:07:23;100486.00;;;19.93;40.05
62544;BME280;48597;49.030;1.822;2023-02-24T04:10:00;100478.22;;;19.93;40.04
62544;BME280;48597;49.030;1.822;2023-02-24T04:12:28;100483.50;;;19.95;40.15
62544;BME280;48597;49.030;1.822;2023-02-24T04:17:28;100472.41;;;19.97;39.99
62544;BME280;48597;49.030;1.822;2023-02-24T04:19:59;100472.75;;;19.99;39.98
62544;BME280;48597;49.030;1.822;2023-02-24T04:22:33;100462.06;;;19.99;40.07
62544;BME280;48597;49.030;1.822;2023-02-24T04:25:00;100473.06;;;20.01;39.96
62544;BME280;48597;49.030;1.822;2023-02-24T04:27:26;100469.38;;;20.01;39.92
62544;BME280;48597;49.030;1.822;2023-02-24T04:29:53;100464.00;;;20.03;39.88
62544;BME280;48597;49.030;1.822;2023-02-24T04:32:21;100464.00;;;20.03;39.95
62544;BME280;48597;49.030;1.822;2023-02-24T04:34:48;100462.75;;;20.04;39.87
62544;BME280;48597;49.030;1.822;2023-02-24T04:37:13;100464.81;;;20.03;39.97
62544;BME280;48597;49.030;1.822;2023-02-24T04:39:39;100465.63;;;20.04;39.81
62544;BME280;48597;49.030;1.822;2023-02-24T04:42:05;100459.09;;;20.03;39.79
62544;BME280;48597;49.030;1.822;2023-02-24T04:44:31;100456.56;;;20.05;39.76
62544;BME280;48597;49.030;1.822;2023-02-24T04:46:59;100456.56;;;20.05;39.79
62544;BME280;48597;49.030;1.822;2023-02-24T04:49:24;100462.63;;;20.07;39.72
62544;BME280;48597;49.030;1.822;2023-02-24T04:51:50;100454.84;;;20.08;39.70
62544;BME280;48597;49.030;1.822;2023-02-24T04:54:16;100468.69;;;20.09;39.66
62544;BME280;48597;49.030;1.822;2023-02-24T04:56:43;100461.72;;;20.10;39.63
62544;BME280;48597;49.030;1.822;2023-02-24T04:59:09;100462.97;;;20.09;39.61
62544;BME280;48597;49.030;1.822;2023-02-24T05:01:35;100456.00;;;20.10;39.66
62544;BME280;48597;49.030;1.822;2023-02-24T05:04:00;100450.28;;;20.10;39.68
62544;BME280;48597;49.030;1.822;2023-02-24T05:06:25;100452.69;;;20.12;39.74
62544;BME280;48597;49.030;1.822;2023-02-24T05:08:50;100457.09;;;20.13;39.66
62544;BME280;48597;49.030;1.822;2023-02-24T05:11:16;100457.91;;;20.13;39.51
62544;BME280;48597;49.030;1.822;2023-02-24T05:13:43;100452.97;;;20.14;39.55
62544;BME280;48597;49.030;1.822;2023-02-24T05:16:10;100448.88;;;20.15;39.49
62544;BME280;48597;49.030;1.822;2023-02-24T05:18:36;100448.06;;;20.14;39.50
62544;BME280;48597;49.030;1.822;2023-02-24T05:21:06;100447.59;;;20.16;39.38
62544;BME280;48597;49.030;1.822;2023-02-24T05:23:51;100446.81;;;20.15;39.45
62544;BME280;48597;49.030;1.822;2023-02-24T05:26:17;100452.06;;;20.17;39.42
62544;BME280;48597;49.030;1.822;2023-02-24T05:28:44;100445.53;;;20.16;39.39
62544;BME280;48597;49.030;1.822;2023-02-24T05:31:14;100447.16;;;20.17;39.34
62544;BME280;48597;49.030;1.822;2023-02-24T05:33:40;100441.41;;;20.17;39.39
62544;BME280;48597;49.030;1.822;2023-02-24T05:36:08;100437.31;;;20.18;39.26
62544;BME280;48597;49.030;1.822;2023-02-24T05:38:34;100439.38;;;20.18;39.38
62544;BME280;48597;49.030;1.822;2023-02-24T05:41:06;100432.38;;;20.19;39.26
62544;BME280;48597;49.030;1.822;2023-02-24T05:43:32;100432.38;;;20.19;39.32
62544;BME280;48597;49.030;1.822;2023-02-24T05:46:00;100430.31;;;20.19;39.22
62544;BME280;48597;49.030;1.822;2023-02-24T05:48:27;100431.91;;;20.20;39.24
62544;BME280;48597;49.030;1.822;2023-02-24T05:50:52;100427.00;;;20.21;39.26
62544;BME280;48597;49.030;1.822;2023-02-24T05:53:19;100428.25;;;20.20;39.04
62544;BME280;48597;49.030;1.822;2023-02-24T05:55:44;100429.06;;;20.20;39.23
62544;BME280;48597;49.030;1.822;2023-02-24T05:58:11;100413.16;;;20.19;39.18
62544;BME280;48597;49.030;1.822;2023-02-24T06:00:36;100417.59;;;20.20;39.08
62544;BME280;48597;49.030;1.822;2023-02-24T06:03:09;100415.53;;;20.21;39.21
62544;BME280;48597;49.030;1.822;2023-02-24T06:05:34;100413.94;;;20.20;39.01
62544;BME280;48597;49.030;1.822;2023-02-24T06:08:03;100416.34;;;20.21;39.20
62544;BME280;48597;49.030;1.822;2023-02-24T06:10:29;100420.00;;;20.22;38.97
62544;BME280;48597;49.030;1.822;2023-02-24T06:12:55;100411.88;;;20.20;39.12
62544;BME280;48597;49.030;1.822;2023-02-24T06:15:21;100411.88;;;20.20;39.11
62544;BME280;48597;49.030;1.822;2023-02-24T06:17:46;100406.16;;;20.20;39.11
62544;BME280;48597;49.030;1.822;2023-02-24T06:20:13;100402.84;;;20.22;39.00
62544;BME280;48597;49.030;1.822;2023-02-24T06:22:39;100406.50;;;20.22;38.97
62544;BME280;48597;49.030;1.822;2023-02-24T06:25:07;100387.72;;;20.21;39.03
62544;BME280;48597;49.030;1.822;2023-02-24T06:27:32;100395.50;;;20.21;38.88
62544;BME280;48597;49.030;1.822;2023-02-24T06:30:00;100391.72;;;20.24;38.96
62544;BME280;48597;49.030;1.822;2023-02-24T06:32:26;100393.00;;;20.23;39.01
62544;BME280;48597;49.030;1.822;2023-02-24T06:34:51;100392.19;;;20.22;38.92
62544;BME280;48597;49.030;1.822;2023-02-24T06:37:17;100397.13;;;20.22;38.95
62544;BME280;48597;49.030;1.822;2023-02-24T06:39:43;100407.31;;;20.23;38.91
62544;BME280;48597;49.030;1.822;2023-02-24T06:42:10;100403.63;;;20.22;39.02
62544;BME280;48597;49.030;1.822;2023-02-24T06:44:37;100406.50;;;20.22;38.96
62544;BME280;48597;49.030;1.822;2023-02-24T06:47:02;100397.13;;;20.22;38.79
62544;BME280;48597;49.030;1.822;2023-02-24T06:49:28;100411.88;;;20.20;38.83
62544;BME280;48597;49.030;1.822;2023-02-24T06:51:53;100404.91;;;20.21;38.96
62544;BME280;48597;49.030;1.822;2023-02-24T06:54:21;100409.38;;;20.22;38.84
62544;BME280;48597;49.030;1.822;2023-02-24T06:56:50;100406.97;;;20.21;38.92
62544;BME280;48597;49.030;1.822;2023-02-24T06:59:15;100401.25;;;20.21;38.76
62544;BME280;48597;49.030;1.822;2023-02-24T07:01:48;100406.50;;;20.22;38.84
62544;BME280;48597;49.030;1.822;2023-02-24T07:04:14;100409.81;;;20.21;38.87
62544;BME280;48597;49.030;1.822;2023-02-24T07:06:40;100408.56;;;20.22;38.83
62544;BME280;48597;49.030;1.822;2023-02-24T07:09:09;100403.63;;;20.22;38.82
62544;BME280;48597;49.030;1.822;2023-02-24T07:11:34;100415.09;;;20.22;38.89
62544;BME280;48597;49.030;1.822;2023-02-24T07:14:00;100406.50;;;20.22;38.77
62544;BME280;48597;49.030;1.822;2023-02-24T07:16:26;100416.34;;;20.21;38.79
62544;BME280;48597;49.030;1.822;2023-02-24T07:18:55;100408.56;;;20.22;38.75
62544;BME280;48597;49.030;1.822;2023-02-24T07:21:22;100402.03;;;20.21;38.70
62544;BME280;48597;49.030;1.822;2023-02-24T07:23:47;100407.75;;;20.21;38.83
62544;BME280;48597;49.030;1.822;2023-02-24T07:26:16;100405.69;;;20.22;38.74
62544;BME280;48597;49.030;1.822;2023-02-24T07:28:42;100400.44;;;20.20;38.77
62544;BME280;48597;49.030;1.822;2023-02-24T07:31:09;100412.69;;;20.21;38.81
62544;BME280;48597;49.030;1.822;2023-02-24T07:33:39;100412.22;;;20.22;38.74
62544;BME280;48597;49.030;1.822;2023-02-24T07:36:06;100412.22;;;20.22;38.77
62544;BME280;48597;49.030;1.822;2023-02-24T07:38:38;100416.34;;;20.21;38.62
62544;BME280;48597;49.030;1.822;2023-02-24T07:41:04;100412.69;;;20.21;38.76
62544;BME280;48597;49.030;1.822;2023-02-24T07:43:34;100410.16;;;20.23;38.79
62544;BME280;48597;49.030;1.822;2023-02-24T07:46:06;100404.91;;;20.21;38.62
62544;BME280;48597;49.030;1.822;2023-02-24T07:48:34;100411.88;;;20.20;38.87
62544;BME280;48597;49.030;1.822;2023-02-24T07:51:21;100408.22;;;20.20;38.87
62544;BME280;48597;49.030;1.822;2023-02-24T07:53:51;100407.88;;;20.18;39.00
62544;BME280;48597;49.030;1.822;2023-02-24T07:56:18;100407.09;;;20.17;39.08
62544;BME280;48597;49.030;1.822;2023-02-24T07:58:44;100409.47;;;20.19;39.21
62544;BME280;48597;49.030;1.822;2023-02-24T08:01:12;100413.16;;;20.19;39.18
62544;BME280;48597;49.030;1.822;2023-02-24T08:03:52;100405.03;;;20.18;39.25
62544;BME280;48597;49.030;1.822;2023-02-24T08:06:23;100409.47;;;20.19;39.25
62544;BME280;48597;49.030;1.822;2023-02-24T08:08:54;100410.75;;;20.18;39.38
62544;BME280;48597;49.030;1.822;2023-02-24T08:11:23;100399.28;;;20.18;39.52
62544;BME280;48597;49.030;1.822;2023-02-24T08:13:49;100396.44;;;20.18;39.51
62544;BME280;48597;49.030;1.822;2023-02-24T08:16:16;100398.84;;;20.19;39.37
62544;BME280;48597;49.030;1.822;2023-02-24T08:18:41;100396.44;;;20.18;39.46
62544;BME280;48597;49.030;1.822;2023-02-24T08:21:13;100387.06;;;20.17;39.52
62544;BME280;48597;49.030;1.822;2023-02-24T08:23:40;100382.59;;;20.16;39.55
62544;BME280;48597;49.030;1.822;2023-02-24T08:26:08;100389.91;;;20.17;39.61
62544;BME280;48597;49.030;1.822;2023-02-24T08:28:36;100391.19;;;20.16;39.48
62544;BME280;48597;49.030;1.822;2023-02-24T08:31:03;100374.94;;;20.13;39.48
62544;BME280;48597;49.030;1.822;2023-02-24T08:33:28;100380.19;;;20.15;39.36
62544;BME280;48597;49.030;1.822;2023-02-24T08:35:54;100379.38;;;20.14;39.45
62544;BME280;48597;49.030;1.822;2023-02-24T08:38:25;100381.94;;;20.12;39.25
62544;BME280;48597;49.030;1.822;2023-02-24T08:41:03;100385.56;;;20.13;39.51
62544;BME280;48597;49.030;1.822;2023-02-24T08:43:30;100379.53;;;20.11;39.39
62544;BME280;48597;49.030;1.822;2023-02-24T08:46:12;100374.63;;;20.11;39.73
62544;BME280;48597;49.030;1.822;2023-02-24T08:49:15;100376.22;;;20.12;39.72
62544;BME280;48597;49.030;1.822;2023-02-24T08:51:35;100363.97;;;20.12;39.73
62544;BME280;48597;49.030;1.822;2023-02-24T08:54:05;100370.50;;;20.12;39.57
62544;BME280;48597;49.030;1.822;2023-02-24T08:56:39;100372.56;;;20.12;39.60
62544;BME280;48597;49.030;1.822;2023-02-24T08:59:08;100362.38;;;20.11;39.66
62544;BME280;48597;49.030;1.822;2023-02-24T09:01:40;100361.56;;;20.10;39.66
62544;BME280;48597;49.030;1.822;2023-02-24T09:04:18;100353.44;;;20.09;39.61
62544;BME280;48597;49.030;1.822;2023-02-24T09:06:45;100366.50;;;20.10;39.53
62544;BME280;48597;49.030;1.822;2023-02-24T09:09:11;100361.56;;;20.10;39.75
62544;BME280;48597;49.030;1.822;2023-02-24T09:11:50;100352.66;;;20.08;39.81
62544;BME280;48597;49.030;1.822;2023-02-24T09:14:20;100359.19;;;20.09;39.66
62544;BME280;48597;49.030;1.822;2023-02-24T09:16:46;100355.97;;;20.07;39.69
62544;BME280;48597;49.030;1.822;2023-02-24T09:19:34;100356.78;;;20.07;39.63
62544;BME280;48597;49.030;1.822;2023-02-24T09:25:08;100366.63;;;20.06;39.61
62544;BME280;48597;49.030;1.822;2023-02-24T09:27:43;100371.53;;;20.06;39.67
62544;BME280;48597;49.030;1.822;2023-02-24T09:30:10;100369.47;;;20.06;39.76
62544;BME280;48597;49.030;1.822;2023-02-24T09:32:56;100377.25;;;20.06;39.67
62544;BME280;48597;49.030;1.822;2023-02-24T09:35:28;100375.66;;;20.05;39.70
62544;BME280;48597;49.030;1.822;2023-02-24T09:38:00;100378.97;;;20.03;39.75
62544;BME280;48597;49.030;1.822;2023-02-24T09:40:30;100373.25;;;20.03;39.71
62544;BME280;48597;49.030;1.822;2023-02-24T09:43:04;100371.66;;;20.02;39.70
62544;BME280;48597;49.030;1.822;2023-02-24T09:45:35;100377.38;;;20.02;39.63
62544;BME280;48597;49.030;1.822;2023-02-24T09:48:08;100380.69;;;20.01;39.76
62544;BME280;48597;49.030;1.822;2023-02-24T09:50:38;100374.97;;;20.01;39.66
62544;BME280;48597;49.030;1.822;2023-02-24T09:53:22;100359.06;;;19.99;39.68
62544;BME280;48597;49.030;1.822;2023-02-24T09:56:00;100357.00;;;20.00;39.59
62544;BME280;48597;49.030;1.822;2023-02-24T09:58:39;100355.44;;;19.99;39.68
62544;BME280;48597;49.030;1.822;2023-02-24T10:04:03;100353.84;;;19.98;39.60
62544;BME280;48597;49.030;1.822;2023-02-24T10:06:39;100353.84;;;19.98;39.71
62544;BME280;48597;49.030;1.822;2023-02-24T10:09:25;100346.53;;;19.97;39.54
62544;BME280;48597;49.030;1.822;2023-02-24T10:11:55;100354.31;;;19.96;39.52
62544;BME280;48597;49.030;1.822;2023-02-24T10:15:14;100345.72;;;19.96;39.48
62544;BME280;48597;49.030;1.822;2023-02-24T10:17:20;100342.88;;;19.96;39.51
62544;BME280;48597;49.030;1.822;2023-02-24T10:20:06;100333.16;;;19.94;39.58
62544;BME280;48597;49.030;1.822;2023-02-24T10:22:55;100326.16;;;19.95;39.49
62544;BME280;48597;49.030;1.822;2023-02-24T10:25:24;100318.84;;;19.94;39.42
62544;BME280;48597;49.030;1.822;2023-02-24T10:33:27;100314.38;;;19.93;39.77
62544;BME280;48597;49.030;1.822;2023-02-24T10:36:08;100318.03;;;19.93;39.77
62544;BME280;48597;49.030;1.822;2023-02-24T10:38:35;100311.53;;;19.93;39.81
62544;BME280;48597;49.030;1.822;2023-02-24T10:41:00;100314.84;;;19.91;39.78
62544;BME280;48597;49.030;1.822;2023-02-24T10:43:30;100300.53;;;19.91;39.80
62544;BME280;48597;49.030;1.822;2023-02-24T10:45:59;100302.59;;;19.91;39.77
62544;BME280;48597;49.030;1.822;2023-02-24T10:49:02;100310.38;;;19.90;39.66
62544;BME280;48597;49.030;1.822;2023-02-24T10:51:39;100306.72;;;19.90;39.77
62544;BME280;48597;49.030;1.822;2023-02-24T10:54:08;100310.84;;;19.89;39.82
62544;BME280;48597;49.030;1.822;2023-02-24T10:56:46;100307.97;;;19.89;39.80
62544;BME280;48597;49.030;1.822;2023-02-24T10:59:19;100300.19;;;19.89;39.89
62544;BME280;48597;49.030;1.822;2023-02-24T11:01:52;100297.34;;;19.89;40.07
62544;BME280;48597;49.030;1.822;2023-02-24T11:04:33;100292.88;;;19.88;40.01
62544;BME280;48597;49.030;1.822;2023-02-24T11:07:19;100289.22;;;19.88;40.14
62544;BME280;48597;49.030;1.822;2023-02-24T11:10:18;100290.81;;;19.89;40.09
62544;BME280;48597;49.030;1.822;2023-02-24T11:12:51;100282.25;;;19.89;40.21
62544;BME280;48597;49.030;1.822;2023-02-24T11:15:36;100282.25;;;19.89;40.28
62544;BME280;48597;49.030;1.822;2023-02-24T11:18:22;100272.41;;;19.90;40.33
62544;BME280;48597;49.030;1.822;2023-02-24T11:20:58;100263.81;;;19.90;40.45
62544;BME280;48597;49.030;1.822;2023-02-24T11:23:28;100268.28;;;19.91;40.44
62544;BME280;48597;49.030;1.822;2023-02-24T11:25:58;100266.22;;;19.91;40.56
62544;BME280;48597;49.030;1.822;2023-02-24T11:33:50;100256.38;;;19.92;40.61
62544;BME280;48597;49.030;1.822;2023-02-24T11:39:06;100233.50;;;19.92;40.57
62544;BME280;48597;49.030;1.822;2023-02-24T11:41:41;100231.44;;;19.93;40.69
62544;BME280;48597;49.030;1.822;2023-02-24T11:44:09;100220.78;;;19.93;40.64
62544;BME280;48597;49.030;1.822;2023-02-24T11:46:40;100216.66;;;19.94;40.61
62544;BME280;48597;49.030;1.822;2023-02-24T11:51:52;100213.00;;;19.94;40.81
62544;BME280;48597;49.030;1.822;2023-02-24T11:54:18;100206.81;;;19.95;40.66
62544;BME280;48597;49.030;1.822;2023-02-24T11:56:46;100196.19;;;19.96;40.80
62544;BME280;48597;49.030;1.822;2023-02-24T11:59:16;100187.59;;;19.96;40.65
62544;BME280;48597;49.030;1.822;2023-02-24T12:04:25;100179.03;;;19.96;40.88
62544;BME280;48597;49.030;1.822;2023-02-24T12:09:40;100162.66;;;19.96;40.90
62544;BME280;48597;49.030;1.822;2023-02-24T12:12:17;100156.94;;;19.96;40.94
62544;BME280;48597;49.030;1.822;2023-02-24T12:14:50;100159.78;;;19.96;40.95
62544;BME280;48597;49.030;1.822;2023-02-24T12:17:34;100157.72;;;19.97;41.07
62544;BME280;48597;49.030;1.822;2023-02-24T12:20:01;100147.88;;;19.98;41.18
62544;BME280;48597;49.030;1.822;2023-02-24T12:22:36;100153.59;;;19.98;40.93
62544;BME280;48597;49.030;1.822;2023-02-24T12:25:10;100149.94;;;19.97;40.99
62544;BME280;48597;49.030;1.822;2023-02-24T12:35:46;100145.03;;;19.98;40.93
62544;BME280;48597;49.030;1.822;2023-02-24T12:38:11;100147.09;;;19.97;41.02
62544;BME280;48597;49.030;1.822;2023-02-24T12:51:26;100129.47;;;19.99;40.99
62544;BME280;48597;49.030;1.822;2023-02-24T12:58:44;100118.47;;;19.97;40.74
62544;BME280;48597;49.030;1.822;2023-02-24T13:01:15;100111.50;;;19.98;40.83
62544;BME280;48597;49.030;1.822;2023-02-24T13:03:56;100107.84;;;19.98;40.85
62544;BME280;48597;49.030;1.822;2023-02-24T13:09:02;100105.28;;;20.00;40.74
62544;BME280;48597;49.030;1.822;2023-02-24T13:14:21;100094.63;;;20.01;40.80
62544;BME280;48597;49.030;1.822;2023-02-24T13:16:43;100097.03;;;20.02;40.76
62544;BME280;48597;49.030;1.822;2023-02-24T13:21:40;100071.75;;;20.01;40.73
62544;BME280;48597;49.030;1.822;2023-02-24T13:24:15;100072.06;;;20.03;40.63
62544;BME280;48597;49.030;1.822;2023-02-24T13:26:43;100056.97;;;20.02;40.58
62544;BME280;48597;49.030;1.822;2023-02-24T13:29:10;100061.75;;;20.05;40.57
62544;BME280;48597;49.030;1.822;2023-02-24T13:31:43;100057.31;;;20.04;40.56
62544;BME280;48597;49.030;1.822;2023-02-24T13:34:28;100058.91;;;20.05;40.46
62544;BME280;48597;49.030;1.822;2023-02-24T13:36:54;100056.03;;;20.05;40.44
62544;BME280;48597;49.030;1.822;2023-02-24T13:39:33;100059.22;;;20.07;40.53
62544;BME280;48597;49.030;1.822;2023-02-24T13:44:53;100056.03;;;20.05;40.38
62544;BME280;48597;49.030;1.822;2023-02-24T13:47:24;100060.97;;;20.05;40.19
62544;BME280;48597;49.030;1.822;2023-02-24T13:50:01;100061.75;;;20.05;40.18
62544;BME280;48597;49.030;1.822;2023-02-24T14:00:19;100055.56;;;20.07;40.00
62544;BME280;48597;49.030;1.822;2023-02-24T14:02:48;100059.22;;;20.07;39.99
62544;BME280;48597;49.030;1.822;2023-02-24T14:05:22;100049.38;;;20.08;40.10
62544;BME280;48597;49.030;1.822;2023-02-24T14:07:49;100050.97;;;20.09;39.93
62544;BME280;48597;49.030;1.822;2023-02-24T14:10:19;100046.53;;;20.08;39.99
62544;BME280;48597;49.030;1.822;2023-02-24T14:12:46;100053.03;;;20.09;40.02
62544;BME280;48597;49.030;1.822;2023-02-24T14:15:18;100042.88;;;20.08;39.87
62544;BME280;48597;49.030;1.822;2023-02-24T14:17:52;100047.31;;;20.09;39.94
62544;BME280;48597;49.030;1.822;2023-02-24T14:20:18;100049.38;;;20.08;39.95
62544;BME280;48597;49.030;1.822;2023-02-24T14:25:13;100056.69;;;20.09;39.90
62544;BME280;48597;49.030;1.822;2023-02-24T14:27:41;100047.78;;;20.07;39.78
62544;BME280;48597;49.030;1.822;2023-02-24T14:30:07;100044.94;;;20.07;39.92
62544;BME280;48597;49.030;1.822;2023-02-24T14:32:44;100042.06;;;20.07;39.79
62544;BME280;48597;49.030;1.822;2023-02-24T14:37:52;100027.44;;;20.05;39.73
62544;BME280;48597;49.030;1.822;2023-02-24T14:40:18;100018.84;;;20.05;39.80
62544;BME280;48597;49.030;1.822;2023-02-24T14:42:46;100018.84;;;20.05;39.77
62544;BME280;48597;49.030;1.822;2023-02-24T14:45:20;100013.59;;;20.04;39.82
62544;BME280;48597;49.030;1.822;2023-02-24T14:47:46;100010.75;;;20.04;39.72
62544;BME280;48597;49.030;1.822;2023-02-24T14:50:14;100003.44;;;20.03;39.75
62544;BME280;48597;49.030;1.822;2023-02-24T14:52:41;100001.38;;;20.03;39.71
62544;BME280;48597;49.030;1.822;2023-02-24T14:55:11;99996.91;;;20.02;39.72
62544;BME280;48597;49.030;1.822;2023-02-24T14:57:43;99995.31;;;20.01;39.70
62544;BME280;48597;49.030;1.822;2023-02-24T15:00:22;99986.72;;;20.01;39.65